sensor_id;sensor_type;location;lat;lon;timestamp;pressure;altitude;pressure_sealevel;temperature;humidity
54948;BME280;41113;41.882;12.530;2023-02-21T00:01:48;102012.13;;;11.19;95.78
54948;BME280;41113;41.882;12.530;2023-02-21T00:04:33;102012.97;;;11.20;95.67
54948;BME280;41113;41.882;12.530;2023-02-21T00:07:17;102007.38;;;11.23;95.21
54948;BME280;41113;41.882;12.530;2023-02-21T00:10:03;102009.84;;;11.26;95.00
54948;BME280;41113;41.882;12.530;2023-02-21T00:12:46;102010.38;;;11.31;94.76
54948;BME280;41113;41.882;12.530;2023-02-21T00:15:31;102011.34;;;11.30;94.22
54948;BME280;41113;41.882;12.530;2023-02-21T00:18:15;102011.47;;;11.29;93.94
54948;BME280;41113;41.882;12.530;2023-02-21T00:20:59;102002.53;;;11.28;94.05
54948;BME280;41113;41.882;12.530;2023-02-21T00:23:43;102007.06;;;11.28;93.86
54948;BME280;41113;41.882;12.530;2023-02-21T00:26:27;102002.97;;;11.22;93.94
54948;BME280;41113;41.882;12.530;2023-02-21T00:29:11;102007.16;;;11.26;93.78
54948;BME280;41113;41.882;12.530;2023-02-21T00:31:56;102004.38;;;11.28;93.77
54948;BME280;41113;41.882;12.530;2023-02-21T00:34:39;101998.88;;;11.29;93.65
54948;BME280;41113;41.882;12.530;2023-02-21T00:37:24;102002.75;;;11.25;93.59
54948;BME280;41113;41.882;12.530;2023-02-21T00:40:10;102000.19;;;11.23;93.46
54948;BME280;41113;41.882;12.530;2023-02-21T00:42:55;102000.41;;;11.20;93.51
54948;BME280;41113;41.882;12.530;2023-02-21T00:45:39;102003.53;;;11.14;93.90
54948;BME280;41113;41.882;12.530;2023-02-21T00:48:23;102004.81;;;11.09;94.34
54948;BME280;41113;41.882;12.530;2023-02-21T00:51:08;102005.34;;;11.14;94.36
54948;BME280;41113;41.882;12.530;2023-02-21T00:53:52;102006.63;;;11.21;94.06
54948;BME280;41113;41.882;12.530;2023-02-21T00:56:36;102013.72;;;11.22;93.89
54948;BME280;41113;41.882;12.530;2023-02-21T00:59:20;102010.06;;;11.23;94.00
54948;BME280;41113;41.882;12.530;2023-02-21T01:02:05;102012.66;;;11.25;94.01
54948;BME280;41113;41.882;12.530;2023-02-21T01:04:49;102002.53;;;11.28;93.74
54948;BME280;41113;41.882;12.530;2023-02-21T01:07:34;102011.56;;;11.27;93.99
54948;BME280;41113;41.882;12.530;2023-02-21T01:10:18;102001.25;;;11.21;93.76
54948;BME280;41113;41.882;12.530;2023-02-21T01:13:03;102003.19;;;11.19;93.97
54948;BME280;41113;41.882;12.530;2023-02-21T01:15:47;102002.13;;;11.21;94.11
54948;BME280;41113;41.882;12.530;2023-02-21T01:18:31;101996.84;;;11.20;94.07
54948;BME280;41113;41.882;12.530;2023-02-21T01:21:17;101992.66;;;11.16;93.76
54948;BME280;41113;41.882;12.530;2023-02-21T01:24:02;101988.34;;;11.13;94.13
54948;BME280;41113;41.882;12.530;2023-02-21T01:26:46;101990.94;;;11.15;94.36
54948;BME280;41113;41.882;12.530;2023-02-21T01:29:31;101989.22;;;11.14;94.45
54948;BME280;41113;41.882;12.530;2023-02-21T01:32:15;101975.66;;;11.03;95.27
54948;BME280;41113;41.882;12.530;2023-02-21T01:34:59;101989.63;;;10.95;95.51
54948;BME280;41113;41.882;12.530;2023-02-21T01:37:44;101976.31;;;10.94;95.49
54948;BME280;41113;41.882;12.530;2023-02-21T01:40:28;101979.09;;;10.92;95.42
54948;BME280;41113;41.882;12.530;2023-02-21T01:43:17;101972.00;;;10.78;95.67
54948;BME280;41113;41.882;12.530;2023-02-21T01:46:01;101975.66;;;10.77;95.95
54948;BME280;41113;41.882;12.530;2023-02-21T01:48:46;101973.50;;;10.82;95.89
54948;BME280;41113;41.882;12.530;2023-02-21T01:51:34;101974.59;;;10.80;95.49
54948;BME280;41113;41.882;12.530;2023-02-21T01:54:21;101966.63;;;10.78;95.42
54948;BME280;41113;41.882;12.530;2023-02-21T01:57:06;101968.78;;;10.73;95.37
54948;BME280;41113;41.882;12.530;2023-02-21T01:59:55;101968.00;;;10.71;95.97
54948;BME280;41113;41.882;12.530;2023-02-21T02:03:02;101972.97;;;10.77;95.79
54948;BME280;41113;41.882;12.530;2023-02-21T02:05:51;101966.00;;;10.75;96.31
54948;BME280;41113;41.882;12.530;2023-02-21T02:08:36;101965.53;;;10.68;96.42
54948;BME280;41113;41.882;12.530;2023-02-21T02:19:32;101951.97;;;10.70;95.23
54948;BME280;41113;41.882;12.530;2023-02-21T02:22:21;101959.28;;;10.68;96.58
54948;BME280;41113;41.882;12.530;2023-02-21T02:24:59;101952.53;;;10.62;96.36
54948;BME280;41113;41.882;12.530;2023-02-21T02:27:40;101950.03;;;10.59;96.64
54948;BME280;41113;41.882;12.530;2023-02-21T02:30:39;101944.88;;;10.56;96.56
54948;BME280;41113;41.882;12.530;2023-02-21T02:36:05;101938.75;;;10.54;96.90
54948;BME280;41113;41.882;12.530;2023-02-21T02:38:47;101936.06;;;10.54;97.24
54948;BME280;41113;41.882;12.530;2023-02-21T02:44:31;101936.66;;;10.32;98.15
54948;BME280;41113;41.882;12.530;2023-02-21T02:47:00;101934.94;;;10.31;98.29
54948;BME280;41113;41.882;12.530;2023-02-21T02:49:28;101926.78;;;10.33;97.95
54948;BME280;41113;41.882;12.530;2023-02-21T02:52:05;101937.09;;;10.39;97.79
54948;BME280;41113;41.882;12.530;2023-02-21T02:54:31;101945.47;;;10.34;96.87
54948;BME280;41113;41.882;12.530;2023-02-21T02:56:57;101946.34;;;10.35;97.49
54948;BME280;41113;41.882;12.530;2023-02-21T02:59:26;101945.28;;;10.37;98.01
54948;BME280;41113;41.882;12.530;2023-02-21T03:02:39;101944.72;;;10.32;97.97
54948;BME280;41113;41.882;12.530;2023-02-21T03:08:23;101943.75;;;10.20;98.00
54948;BME280;41113;41.882;12.530;2023-02-21T03:11:13;101934.25;;;10.15;98.83
54948;BME280;41113;41.882;12.530;2023-02-21T03:13:48;101938.75;;;10.14;99.01
54948;BME280;41113;41.882;12.530;2023-02-21T03:16:28;101937.69;;;10.17;98.73
54948;BME280;41113;41.882;12.530;2023-02-21T03:19:01;101932.72;;;10.11;98.72
54948;BME280;41113;41.882;12.530;2023-02-21T03:21:57;101927.25;;;10.12;98.51
54948;BME280;41113;41.882;12.530;2023-02-21T03:24:25;101933.75;;;10.22;98.16
54948;BME280;41113;41.882;12.530;2023-02-21T03:26:56;101938.91;;;10.25;97.64
54948;BME280;41113;41.882;12.530;2023-02-21T03:29:24;101935.09;;;10.15;97.81
54948;BME280;41113;41.882;12.530;2023-02-21T03:31:55;101933.13;;;10.05;98.75
54948;BME280;41113;41.882;12.530;2023-02-21T03:34:25;101930.44;;;10.05;99.55
54948;BME280;41113;41.882;12.530;2023-02-21T03:36:50;101930.53;;;10.03;99.41
54948;BME280;41113;41.882;12.530;2023-02-21T03:39:16;101936.56;;;10.07;98.81
54948;BME280;41113;41.882;12.530;2023-02-21T03:41:41;101939.16;;;10.08;99.07
54948;BME280;41113;41.882;12.530;2023-02-21T03:44:07;101933.00;;;10.06;99.09
54948;BME280;41113;41.882;12.530;2023-02-21T03:46:33;101927.00;;;10.03;99.71
54948;BME280;41113;41.882;12.530;2023-02-21T03:48:58;101937.72;;;10.03;100.00
54948;BME280;41113;41.882;12.530;2023-02-21T03:51:24;101938.97;;;10.11;100.00
54948;BME280;41113;41.882;12.530;2023-02-21T03:53:49;101938.75;;;10.14;99.88
54948;BME280;41113;41.882;12.530;2023-02-21T03:56:15;101935.75;;;10.19;99.46
54948;BME280;41113;41.882;12.530;2023-02-21T03:58:40;101936.06;;;10.14;98.96
54948;BME280;41113;41.882;12.530;2023-02-21T04:01:06;101936.66;;;10.05;99.59
54948;BME280;41113;41.882;12.530;2023-02-21T04:03:31;101931.19;;;10.07;99.86
54948;BME280;41113;41.882;12.530;2023-02-21T04:05:56;101938.38;;;10.06;99.70
54948;BME280;41113;41.882;12.530;2023-02-21T04:08:22;101939.34;;;10.05;100.00
54948;BME280;41113;41.882;12.530;2023-02-21T04:10:47;101935.69;;;10.06;99.99
54948;BME280;41113;41.882;12.530;2023-02-21T04:13:13;101932.66;;;9.98;100.00
54948;BME280;41113;41.882;12.530;2023-02-21T04:15:38;101932.44;;;9.88;100.00
54948;BME280;41113;41.882;12.530;2023-02-21T04:18:04;101928.88;;;9.88;100.00
54948;BME280;41113;41.882;12.530;2023-02-21T04:20:29;101929.75;;;9.88;100.00
54948;BME280;41113;41.882;12.530;2023-02-21T04:22:55;101935.75;;;9.92;100.00
54948;BME280;41113;41.882;12.530;2023-02-21T04:25:20;101938.59;;;10.03;100.00
54948;BME280;41113;41.882;12.530;2023-02-21T04:27:45;101937.41;;;10.07;100.00
54948;BME280;41113;41.882;12.530;2023-02-21T04:30:11;101937.59;;;9.91;100.00
54948;BME280;41113;41.882;12.530;2023-02-21T04:32:36;101932.72;;;9.84;100.00
54948;BME280;41113;41.882;12.530;2023-02-21T04:35:02;101937.13;;;9.85;100.00
54948;BME280;41113;41.882;12.530;2023-02-21T04:37:27;101939.06;;;9.83;100.00
54948;BME280;41113;41.882;12.530;2023-02-21T04:39:53;101933.69;;;9.83;100.00
54948;BME280;41113;41.882;12.530;2023-02-21T04:42:18;101935.63;;;9.81;100.00
54948;BME280;41113;41.882;12.530;2023-02-21T04:44:44;101940.13;;;9.80;100.00
54948;BME280;41113;41.882;12.530;2023-02-21T04:47:09;101933.69;;;9.83;100.00
54948;BME280;41113;41.882;12.530;2023-02-21T04:49:35;101929.84;;;9.87;100.00
54948;BME280;41113;41.882;12.530;2023-02-21T04:52:00;101927.91;;;9.89;100.00
54948;BME280;41113;41.882;12.530;2023-02-21T04:54:26;101928.38;;;9.95;100.00
54948;BME280;41113;41.882;12.530;2023-02-21T04:56:51;101926.03;;;10.04;100.00
54948;BME280;41113;41.882;12.530;2023-02-21T04:59:17;101927.31;;;9.98;100.00
54948;BME280;41113;41.882;12.530;2023-02-21T05:01:42;101928.81;;;10.02;100.00
54948;BME280;41113;41.882;12.530;2023-02-21T05:04:08;101930.53;;;10.03;100.00
54948;BME280;41113;41.882;12.530;2023-02-21T05:06:33;101924.81;;;9.95;100.00
54948;BME280;41113;41.882;12.530;2023-02-21T05:08:59;101918.50;;;9.96;100.00
54948;BME280;41113;41.882;12.530;2023-02-21T05:11:25;101926.78;;;10.06;100.00
54948;BME280;41113;41.882;12.530;2023-02-21T05:13:51;101923.19;;;10.19;100.00
54948;BME280;41113;41.882;12.530;2023-02-21T05:16:17;101921.41;;;10.33;99.70
54948;BME280;41113;41.882;12.530;2023-02-21T05:18:45;101917.22;;;10.28;98.64
54948;BME280;41113;41.882;12.530;2023-02-21T05:21:11;101907.88;;;10.21;98.62
54948;BME280;41113;41.882;12.530;2023-02-21T05:23:38;101914.53;;;10.28;98.73
54948;BME280;41113;41.882;12.530;2023-02-21T05:26:13;101908.69;;;10.09;99.59
54948;BME280;41113;41.882;12.530;2023-02-21T05:28:39;101912.72;;;10.02;100.00
54948;BME280;41113;41.882;12.530;2023-02-21T05:31:05;101915.75;;;10.10;100.00
54948;BME280;41113;41.882;12.530;2023-02-21T05:33:31;101911.91;;;10.14;100.00
54948;BME280;41113;41.882;12.530;2023-02-21T05:35:57;101906.16;;;10.20;99.78
54948;BME280;41113;41.882;12.530;2023-02-21T05:38:24;101908.00;;;10.33;99.24
54948;BME280;41113;41.882;12.530;2023-02-21T05:40:50;101906.28;;;10.32;99.00
54948;BME280;41113;41.882;12.530;2023-02-21T05:43:16;101899.44;;;10.13;100.00
54948;BME280;41113;41.882;12.530;2023-02-21T05:45:42;101897.94;;;10.09;100.00
54948;BME280;41113;41.882;12.530;2023-02-21T05:48:07;101903.69;;;10.03;100.00
54948;BME280;41113;41.882;12.530;2023-02-21T05:50:33;101898.53;;;10.00;100.00
54948;BME280;41113;41.882;12.530;2023-02-21T05:52:59;101901.00;;;10.03;100.00
54948;BME280;41113;41.882;12.530;2023-02-21T05:55:25;101898.97;;;9.94;100.00
54948;BME280;41113;41.882;12.530;2023-02-21T05:57:51;101899.38;;;9.88;100.00
54948;BME280;41113;41.882;12.530;2023-02-21T06:00:19;101892.50;;;9.84;100.00
54948;BME280;41113;41.882;12.530;2023-02-21T06:02:45;101901.94;;;9.89;100.00
54948;BME280;41113;41.882;12.530;2023-02-21T06:05:12;101896.38;;;9.92;100.00
54948;BME280;41113;41.882;12.530;2023-02-21T06:07:37;101901.63;;;9.94;100.00
54948;BME280;41113;41.882;12.530;2023-02-21T06:10:04;101897.03;;;9.96;100.00
54948;BME280;41113;41.882;12.530;2023-02-21T06:12:30;101900.47;;;9.98;100.00
54948;BME280;41113;41.882;12.530;2023-02-21T06:14:55;101897.47;;;10.03;100.00
54948;BME280;41113;41.882;12.530;2023-02-21T06:17:21;101896.06;;;9.97;100.00
54948;BME280;41113;41.882;12.530;2023-02-21T06:19:46;101892.22;;;10.01;100.00
54948;BME280;41113;41.882;12.530;2023-02-21T06:22:12;101900.03;;;10.04;100.00
54948;BME280;41113;41.882;12.530;2023-02-21T06:24:38;101894.69;;;10.04;100.00
54948;BME280;41113;41.882;12.530;2023-02-21T06:27:03;101907.56;;;9.99;100.00
54948;BME280;41113;41.882;12.530;2023-02-21T06:29:29;101905.28;;;9.93;100.00
54948;BME280;41113;41.882;12.530;2023-02-21T06:31:57;101900.88;;;9.92;100.00
54948;BME280;41113;41.882;12.530;2023-02-21T06:34:22;101907.97;;;9.93;100.00
54948;BME280;41113;41.882;12.530;2023-02-21T06:36:51;101902.16;;;9.86;100.00
54948;BME280;41113;41.882;12.530;2023-02-21T06:39:16;101906.66;;;9.86;100.00
54948;BME280;41113;41.882;12.530;2023-02-21T06:41:42;101904.75;;;9.88;100.00
54948;BME280;41113;41.882;12.530;2023-02-21T06:44:07;101911.06;;;9.87;99.94
54948;BME280;41113;41.882;12.530;2023-02-21T06:46:33;101911.81;;;9.89;99.66
54948;BME280;41113;41.882;12.530;2023-02-21T06:49:00;101912.91;;;9.99;99.18
54948;BME280;41113;41.882;12.530;2023-02-21T06:51:26;101912.72;;;10.02;98.02
54948;BME280;41113;41.882;12.530;2023-02-21T06:53:54;101910.44;;;9.96;97.82
54948;BME280;41113;41.882;12.530;2023-02-21T06:56:19;101916.34;;;10.01;98.08
54948;BME280;41113;41.882;12.530;2023-02-21T06:58:44;101921.38;;;10.20;97.92
54948;BME280;41113;41.882;12.530;2023-02-21T07:01:10;101921.38;;;10.20;96.90
54948;BME280;41113;41.882;12.530;2023-02-21T07:03:39;101925.16;;;10.03;96.42
54948;BME280;41113;41.882;12.530;2023-02-21T07:06:05;101920.63;;;9.91;96.95
54948;BME280;41113;41.882;12.530;2023-02-21T07:08:30;101913.53;;;9.90;97.48
54948;BME280;41113;41.882;12.530;2023-02-21T07:10:55;101919.16;;;9.99;97.62
54948;BME280;41113;41.882;12.530;2023-02-21T07:13:21;101921.13;;;10.10;96.84
54948;BME280;41113;41.882;12.530;2023-02-21T07:15:46;101917.28;;;10.14;96.54
54948;BME280;41113;41.882;12.530;2023-02-21T07:18:12;101912.88;;;10.13;96.49
54948;BME280;41113;41.882;12.530;2023-02-21T07:20:37;101917.28;;;10.14;96.34
54948;BME280;41113;41.882;12.530;2023-02-21T07:23:02;101914.06;;;10.09;96.11
54948;BME280;41113;41.882;12.530;2023-02-21T07:25:28;101909.22;;;10.14;96.51
54948;BME280;41113;41.882;12.530;2023-02-21T07:27:54;101904.97;;;10.24;95.96
54948;BME280;41113;41.882;12.530;2023-02-21T07:30:20;101908.34;;;10.41;95.81
54948;BME280;41113;41.882;12.530;2023-02-21T07:32:45;101914.59;;;10.54;94.81
54948;BME280;41113;41.882;12.530;2023-02-21T07:35:11;101916.84;;;10.60;94.50
54948;BME280;41113;41.882;12.530;2023-02-21T07:37:37;101915.34;;;10.69;94.30
54948;BME280;41113;41.882;12.530;2023-02-21T07:40:03;101906.66;;;10.78;93.80
54948;BME280;41113;41.882;12.530;2023-02-21T07:42:31;101909.00;;;10.95;93.57
54948;BME280;41113;41.882;12.530;2023-02-21T07:44:57;101912.09;;;11.14;92.81
54948;BME280;41113;41.882;12.530;2023-02-21T07:47:24;101912.41;;;11.22;91.53
54948;BME280;41113;41.882;12.530;2023-02-21T07:49:51;101914.75;;;11.27;91.09
54948;BME280;41113;41.882;12.530;2023-02-21T07:52:18;101909.56;;;11.37;90.95
54948;BME280;41113;41.882;12.530;2023-02-21T07:54:44;101915.69;;;11.51;90.62
54948;BME280;41113;41.882;12.530;2023-02-21T07:57:10;101914.00;;;11.62;90.07
54948;BME280;41113;41.882;12.530;2023-02-21T07:59:35;101913.34;;;11.71;89.32
54948;BME280;41113;41.882;12.530;2023-02-21T08:02:01;101910.13;;;11.78;89.06
54948;BME280;41113;41.882;12.530;2023-02-21T08:04:26;101908.34;;;11.90;89.02
54948;BME280;41113;41.882;12.530;2023-02-21T08:06:58;101911.06;;;12.01;88.46
54948;BME280;41113;41.882;12.530;2023-02-21T08:09:23;101910.63;;;12.07;87.76
54948;BME280;41113;41.882;12.530;2023-02-21T08:11:49;101909.78;;;12.07;88.08
54948;BME280;41113;41.882;12.530;2023-02-21T08:14:14;101906.53;;;12.02;86.85
54948;BME280;41113;41.882;12.530;2023-02-21T08:16:40;101899.53;;;11.88;87.60
54948;BME280;41113;41.882;12.530;2023-02-21T08:19:05;101904.66;;;11.91;87.92
54948;BME280;41113;41.882;12.530;2023-02-21T08:21:32;101903.34;;;11.97;87.78
54948;BME280;41113;41.882;12.530;2023-02-21T08:23:57;101904.72;;;12.02;87.68
54948;BME280;41113;41.882;12.530;2023-02-21T08:26:24;101894.78;;;12.27;87.58
54948;BME280;41113;41.882;12.530;2023-02-21T08:28:49;101898.63;;;12.46;86.19
54948;BME280;41113;41.882;12.530;2023-02-21T08:31:15;101901.63;;;12.31;85.11
54948;BME280;41113;41.882;12.530;2023-02-21T08:33:40;101900.53;;;12.33;85.11
54948;BME280;41113;41.882;12.530;2023-02-21T08:36:05;101904.44;;;12.29;85.41
54948;BME280;41113;41.882;12.530;2023-02-21T08:38:31;101904.75;;;12.37;85.37
54948;BME280;41113;41.882;12.530;2023-02-21T08:40:56;101903.44;;;12.54;85.31
54948;BME280;41113;41.882;12.530;2023-02-21T08:43:23;101911.31;;;12.68;83.66
54948;BME280;41113;41.882;12.530;2023-02-21T08:45:49;101906.16;;;12.88;84.00
54948;BME280;41113;41.882;12.530;2023-02-21T08:48:14;101897.09;;;12.89;82.68
54948;BME280;41113;41.882;12.530;2023-02-21T08:50:40;101903.47;;;12.76;81.52
54948;BME280;41113;41.882;12.530;2023-02-21T08:53:05;101900.03;;;12.86;82.09
54948;BME280;41113;41.882;12.530;2023-02-21T08:55:30;101900.78;;;12.88;82.01
54948;BME280;41113;41.882;12.530;2023-02-21T08:57:56;101898.34;;;13.07;82.46
54948;BME280;41113;41.882;12.530;2023-02-21T09:00:23;101901.53;;;13.12;81.72
54948;BME280;41113;41.882;12.530;2023-02-21T09:02:50;101891.25;;;13.17;80.79
54948;BME280;41113;41.882;12.530;2023-02-21T09:05:18;101897.13;;;13.22;79.16
54948;BME280;41113;41.882;12.530;2023-02-21T09:07:48;101893.81;;;13.30;80.76
54948;BME280;41113;41.882;12.530;2023-02-21T09:10:14;101897.25;;;13.43;79.94
54948;BME280;41113;41.882;12.530;2023-02-21T09:12:39;101907.03;;;13.55;79.80
54948;BME280;41113;41.882;12.530;2023-02-21T09:15:06;101897.59;;;13.50;79.49
54948;BME280;41113;41.882;12.530;2023-02-21T09:17:31;101891.69;;;13.56;79.54
54948;BME280;41113;41.882;12.530;2023-02-21T09:19:59;101889.72;;;13.69;79.43
54948;BME280;41113;41.882;12.530;2023-02-21T09:22:25;101886.03;;;13.59;77.55
54948;BME280;41113;41.882;12.530;2023-02-21T09:24:50;101883.81;;;13.64;78.73
54948;BME280;41113;41.882;12.530;2023-02-21T09:27:16;101888.97;;;13.67;78.78
54948;BME280;41113;41.882;12.530;2023-02-21T09:29:42;101882.81;;;13.76;78.88
54948;BME280;41113;41.882;12.530;2023-02-21T09:32:07;101886.44;;;13.86;78.78
54948;BME280;41113;41.882;12.530;2023-02-21T09:34:33;101886.50;;;13.75;78.89
54948;BME280;41113;41.882;12.530;2023-02-21T09:36:58;101880.84;;;13.78;78.82
54948;BME280;41113;41.882;12.530;2023-02-21T09:39:28;101882.28;;;13.82;78.94
54948;BME280;41113;41.882;12.530;2023-02-21T09:41:53;101893.69;;;13.86;79.30
54948;BME280;41113;41.882;12.530;2023-02-21T09:44:23;101883.50;;;13.89;78.74
54948;BME280;41113;41.882;12.530;2023-02-21T09:46:57;101885.72;;;13.84;79.13
54948;BME280;41113;41.882;12.530;2023-02-21T09:49:32;101884.00;;;13.83;79.16
54948;BME280;41113;41.882;12.530;2023-02-21T09:51:59;101881.91;;;13.87;79.06
54948;BME280;41113;41.882;12.530;2023-02-21T09:54:34;101887.19;;;13.88;78.85
54948;BME280;41113;41.882;12.530;2023-02-21T09:57:01;101878.09;;;13.89;78.71
54948;BME280;41113;41.882;12.530;2023-02-21T09:59:27;101877.22;;;13.89;77.71
54948;BME280;41113;41.882;12.530;2023-02-21T10:02:08;101877.81;;;13.92;78.06
54948;BME280;41113;41.882;12.530;2023-02-21T10:12:48;101869.44;;;14.07;75.73
54948;BME280;41113;41.882;12.530;2023-02-21T10:20:27;101862.72;;;14.22;74.21
54948;BME280;41113;41.882;12.530;2023-02-21T10:22:55;101864.13;;;14.37;74.77
54948;BME280;41113;41.882;12.530;2023-02-21T10:25:25;101867.53;;;14.39;73.34
54948;BME280;41113;41.882;12.530;2023-02-21T10:27:53;101856.38;;;14.44;73.27
54948;BME280;41113;41.882;12.530;2023-02-21T10:30:26;101846.47;;;14.54;72.56
54948;BME280;41113;41.882;12.530;2023-02-21T10:32:56;101852.13;;;14.72;73.09
54948;BME280;41113;41.882;12.530;2023-02-21T10:35:21;101847.75;;;14.80;72.30
54948;BME280;41113;41.882;12.530;2023-02-21T10:37:55;101838.38;;;14.94;72.01
54948;BME280;41113;41.882;12.530;2023-02-21T10:42:59;101838.16;;;14.97;71.37
54948;BME280;41113;41.882;12.530;2023-02-21T10:48:14;101827.94;;;15.10;71.51
54948;BME280;41113;41.882;12.530;2023-02-21T10:50:52;101828.63;;;15.03;70.77
54948;BME280;41113;41.882;12.530;2023-02-21T10:53:39;101818.94;;;15.00;69.54
54948;BME280;41113;41.882;12.530;2023-02-21T10:58:58;101820.38;;;14.74;69.23
54948;BME280;41113;41.882;12.530;2023-02-21T11:03:52;101814.38;;;15.01;69.80
54948;BME280;41113;41.882;12.530;2023-02-21T11:08:48;101811.41;;;15.13;70.26
54948;BME280;41113;41.882;12.530;2023-02-21T11:11:13;101807.84;;;15.13;69.78
54948;BME280;41113;41.882;12.530;2023-02-21T11:13:38;101802.31;;;15.14;69.72
54948;BME280;41113;41.882;12.530;2023-02-21T11:16:11;101800.03;;;15.19;69.04
54948;BME280;41113;41.882;12.530;2023-02-21T11:18:39;101796.59;;;15.17;69.66
54948;BME280;41113;41.882;12.530;2023-02-21T11:21:16;101801.16;;;15.07;69.90
54948;BME280;41113;41.882;12.530;2023-02-21T11:23:52;101795.75;;;15.07;69.91
54948;BME280;41113;41.882;12.530;2023-02-21T11:26:24;101790.03;;;15.10;69.63
54948;BME280;41113;41.882;12.530;2023-02-21T11:28:52;101788.47;;;15.08;69.31
54948;BME280;41113;41.882;12.530;2023-02-21T11:31:24;101784.47;;;15.02;69.45
54948;BME280;41113;41.882;12.530;2023-02-21T11:34:04;101786.06;;;15.05;69.47
54948;BME280;41113;41.882;12.530;2023-02-21T11:36:32;101778.22;;;15.02;66.29
54948;BME280;41113;41.882;12.530;2023-02-21T11:39:22;101771.09;;;15.01;67.77
54948;BME280;41113;41.882;12.530;2023-02-21T11:41:56;101767.25;;;15.03;69.47
54948;BME280;41113;41.882;12.530;2023-02-21T11:44:38;101764.34;;;14.95;69.38
54948;BME280;41113;41.882;12.530;2023-02-21T11:50:41;101754.66;;;14.83;68.25
54948;BME280;41113;41.882;12.530;2023-02-21T11:52:55;101752.38;;;14.78;69.46
54948;BME280;41113;41.882;12.530;2023-02-21T11:55:24;101758.06;;;14.75;69.98
54948;BME280;41113;41.882;12.530;2023-02-21T12:00:54;101752.34;;;14.69;70.75
54948;BME280;41113;41.882;12.530;2023-02-21T12:03:56;101737.63;;;14.61;70.80
54948;BME280;41113;41.882;12.530;2023-02-21T12:08:57;101732.78;;;14.55;71.48
54948;BME280;41113;41.882;12.530;2023-02-21T12:24:57;101711.28;;;14.54;71.06
54948;BME280;41113;41.882;12.530;2023-02-21T12:27:53;101703.03;;;14.55;70.87
54948;BME280;41113;41.882;12.530;2023-02-21T12:41:31;101677.72;;;14.56;69.99
54948;BME280;41113;41.882;12.530;2023-02-21T12:46:39;101671.22;;;14.69;70.31
54948;BME280;41113;41.882;12.530;2023-02-21T12:49:20;101664.13;;;14.77;70.35
54948;BME280;41113;41.882;12.530;2023-02-21T12:51:59;101665.41;;;14.83;70.28
54948;BME280;41113;41.882;12.530;2023-02-21T12:54:46;101656.16;;;14.85;68.77
54948;BME280;41113;41.882;12.530;2023-02-21T12:57:17;101647.63;;;14.80;68.56
54948;BME280;41113;41.882;12.530;2023-02-21T12:59:58;101657.28;;;14.83;68.65
54948;BME280;41113;41.882;12.530;2023-02-21T13:05:54;101647.63;;;14.90;68.27
54948;BME280;41113;41.882;12.530;2023-02-21T13:09:16;101649.03;;;14.94;68.87
54948;BME280;41113;41.882;12.530;2023-02-21T13:11:28;101641.66;;;14.96;68.85
54948;BME280;41113;41.882;12.530;2023-02-21T13:13:57;101639.94;;;14.95;68.72
54948;BME280;41113;41.882;12.530;2023-02-21T13:16:23;101634.50;;;14.95;68.64
54948;BME280;41113;41.882;12.530;2023-02-21T13:19:03;101635.66;;;14.92;68.70
54948;BME280;41113;41.882;12.530;2023-02-21T13:29:31;101625.97;;;14.90;67.52
54948;BME280;41113;41.882;12.530;2023-02-21T13:32:09;101624.28;;;14.89;66.27
54948;BME280;41113;41.882;12.530;2023-02-21T13:34:38;101618.56;;;14.92;67.88
54948;BME280;41113;41.882;12.530;2023-02-21T13:37:07;101618.28;;;14.95;67.83
54948;BME280;41113;41.882;12.530;2023-02-21T13:39:37;101617.31;;;14.96;67.82
54948;BME280;41113;41.882;12.530;2023-02-21T13:42:15;101616.31;;;14.97;67.55
54948;BME280;41113;41.882;12.530;2023-02-21T13:44:46;101607.63;;;14.93;67.37
54948;BME280;41113;41.882;12.530;2023-02-21T13:47:13;101608.31;;;14.95;67.93
54948;BME280;41113;41.882;12.530;2023-02-21T13:52:49;101603.50;;;14.99;66.10
54948;BME280;41113;41.882;12.530;2023-02-21T13:57:47;101596.97;;;15.02;66.71
54948;BME280;41113;41.882;12.530;2023-02-21T14:08:34;101596.09;;;15.01;65.42
54948;BME280;41113;41.882;12.530;2023-02-21T14:16:24;101589.81;;;14.91;65.60
54948;BME280;41113;41.882;12.530;2023-02-21T14:18:51;101587.13;;;14.91;66.57
54948;BME280;41113;41.882;12.530;2023-02-21T14:21:26;101583.69;;;14.89;65.61
54948;BME280;41113;41.882;12.530;2023-02-21T14:39:45;101580.44;;;14.85;66.64
54948;BME280;41113;41.882;12.530;2023-02-21T14:45:17;101576.44;;;14.80;65.21
54948;BME280;41113;41.882;12.530;2023-02-21T14:48:03;101576.44;;;14.80;66.43
54948;BME280;41113;41.882;12.530;2023-02-21T14:54:04;101577.16;;;14.72;66.57
54948;BME280;41113;41.882;12.530;2023-02-21T15:10:21;101564.19;;;14.56;67.35
54948;BME280;41113;41.882;12.530;2023-02-21T15:12:54;101564.75;;;14.50;67.75
54948;BME280;41113;41.882;12.530;2023-02-21T15:15:27;101561.19;;;14.50;68.01
54948;BME280;41113;41.882;12.530;2023-02-21T15:17:55;101566.75;;;14.48;68.25
54948;BME280;41113;41.882;12.530;2023-02-21T15:20:22;101556.22;;;14.45;68.64
54948;BME280;41113;41.882;12.530;2023-02-21T15:22:57;101556.47;;;14.42;68.89
54948;BME280;41113;41.882;12.530;2023-02-21T15:25:24;101557.03;;;14.36;69.39
54948;BME280;41113;41.882;12.530;2023-02-21T15:30:26;101555.59;;;14.32;69.79
54948;BME280;41113;41.882;12.530;2023-02-21T15:35:50;101557.13;;;14.25;70.73